Time;durP1;ratioP1;P1;durP2;ratioP2;P2;SDS_P1;SDS_P2;PMS_P1;PMS_P2;Temp;Humidity;BMP_temperature;BMP_pressure;BME280_temperature;BME280_humidity;BME280_pressure;Samples;Min_cycle;Max_cycle;Signal;HPM_P1;HPM_P2
2022/06/13 00:27:51;;;;;;;4.47;3.20;;;;;;;20.15;52.11;99071.78;5165818;27;20125;-67
2022/06/13 00:31:44;;;;;;;5.50;3.65;;;;;;;20.27;52.11;99078.66;5145165;27;20154;-67
2022/06/13 00:34:11;;;;;;;4.70;3.00;;;;;;;20.28;52.53;99068.75;5143906;27;20047;-67
2022/06/13 00:36:39;;;;;;;4.28;3.50;;;;;;;20.40;52.30;99068.38;5144223;27;20069;-67
2022/06/13 00:39:06;;;;;;;4.57;3.65;;;;;;;20.44;52.52;99063.53;5144163;27;20062;-68
2022/06/13 00:41:36;;;;;;;4.00;3.45;;;;;;;20.57;52.10;99063.13;5143933;27;20047;-67
2022/06/13 00:44:09;;;;;;;4.60;3.10;;;;;;;20.63;52.77;99062.50;5143792;27;20054;-68
2022/06/13 00:46:36;;;;;;;3.65;2.90;;;;;;;20.68;52.26;99058.34;5143742;27;20051;-67
2022/06/13 00:49:10;;;;;;;3.85;3.05;;;;;;;20.75;52.27;99045.97;5143692;27;20062;-68
2022/06/13 00:51:44;;;;;;;5.28;3.10;;;;;;;20.76;52.25;99047.66;5143367;27;20055;-67
2022/06/13 00:54:13;;;;;;;4.03;3.40;;;;;;;20.67;52.17;99039.66;5143373;27;20346;-68
2022/06/13 00:56:40;;;;;;;5.65;3.38;;;;;;;20.69;52.43;99046.59;5143737;27;20121;-68
2022/06/13 00:59:14;;;;;;;4.65;3.38;;;;;;;20.74;52.42;99038.88;5143643;27;20215;-68
2022/06/13 01:01:42;;;;;;;3.50;3.00;;;;;;;20.79;52.32;99046.50;5143625;27;20051;-68
2022/06/13 01:04:11;;;;;;;3.75;3.00;;;;;;;20.83;52.36;99043.31;5144186;27;20055;-68
2022/06/13 01:06:43;;;;;;;3.58;2.80;;;;;;;20.82;52.41;99041.63;5143616;27;20047;-67
2022/06/13 01:09:12;;;;;;;3.67;2.88;;;;;;;20.71;52.48;99033.81;5142995;27;20223;-67
2022/06/13 01:11:50;;;;;;;4.18;3.60;;;;;;;20.31;52.65;98969.72;5143103;27;20058;-67
2022/06/13 01:14:42;;;;;;;4.45;2.90;;;;;;;20.73;52.38;99026.41;5143131;27;20304;-68
2022/06/13 01:17:27;;;;;;;7.18;3.42;;;;;;;20.69;52.66;99019.66;5143216;27;20055;-67
2022/06/13 01:20:21;;;;;;;4.18;3.15;;;;;;;20.57;53.17;99018.22;5142734;27;20342;-67
2022/06/13 01:23:24;;;;;;;4.32;3.15;;;;;;;20.48;54.25;99024.53;5142981;27;20058;-67
2022/06/13 01:26:18;;;;;;;8.07;3.35;;;;;;;20.07;54.77;98978.41;5142964;27;20055;-68
2022/06/13 01:29:21;;;;;;;4.80;3.22;;;;;;;20.46;55.09;99031.91;5130972;27;20078;-68
2022/06/13 01:31:54;;;;;;;4.28;3.63;;;;;;;20.38;55.05;99023.78;5136179;27;20196;-68
2022/06/13 01:34:34;;;;;;;4.13;3.10;;;;;;;20.30;55.96;99013.78;5142890;27;20047;-67
2022/06/13 01:37:23;;;;;;;6.07;3.92;;;;;;;20.03;56.11;99013.81;5142479;27;20062;-68
2022/06/13 01:40:08;;;;;;;4.40;3.83;;;;;;;20.08;56.54;99008.84;5143047;27;20055;-67
2022/06/13 01:42:47;;;;;;;4.20;3.35;;;;;;;20.09;56.12;99006.00;5131421;27;20055;-67
2022/06/13 01:45:21;;;;;;;6.47;4.28;;;;;;;20.18;55.73;99010.44;5129084;28;20051;-68
2022/06/13 01:47:58;;;;;;;4.93;3.72;;;;;;;19.64;56.22;98924.50;5128866;28;20246;-68
2022/06/13 01:50:31;;;;;;;5.82;3.55;;;;;;;20.13;55.93;99001.16;5129028;28;20066;-67
2022/06/13 01:53:06;;;;;;;5.10;3.53;;;;;;;19.74;57.30;99000.53;5128783;28;20063;-67
2022/06/13 01:55:41;;;;;;;4.45;3.35;;;;;;;19.88;57.04;98999.22;5128770;28;20055;-67
2022/06/13 01:58:13;;;;;;;8.15;3.80;;;;;;;19.89;56.71;99000.91;5128948;28;20051;-67
2022/06/13 02:00:47;;;;;;;4.95;3.53;;;;;;;19.92;56.24;99004.13;5128809;28;20059;-67
2022/06/13 02:03:18;;;;;;;4.65;4.10;;;;;;;19.91;56.42;99009.66;5128461;27;20358;-67
2022/06/13 02:05:52;;;;;;;4.28;3.88;;;;;;;19.90;56.62;99007.97;5128792;27;20299;-67
2022/06/13 02:08:23;;;;;;;5.30;3.87;;;;;;;19.04;56.52;98859.66;5128175;28;20055;-67
2022/06/13 02:10:55;;;;;;;4.80;3.88;;;;;;;19.72;57.09;98997.16;5128305;28;20062;-67
2022/06/13 02:13:32;;;;;;;4.78;3.97;;;;;;;19.79;56.73;98999.09;5128505;28;20067;-67
2022/06/13 02:16:06;;;;;;;6.13;4.07;;;;;;;19.70;56.84;99000.00;5128733;28;20059;-67
2022/06/13 02:18:42;;;;;;;5.15;3.67;;;;;;;19.69;57.11;98995.63;5128332;28;20074;-67
2022/06/13 02:21:13;;;;;;;4.45;3.75;;;;;;;19.70;56.80;99001.84;5128213;28;20052;-68
2022/06/13 02:23:47;;;;;;;4.05;3.65;;;;;;;19.74;57.01;99011.28;5128339;28;20070;-68
2022/06/13 02:26:18;;;;;;;4.03;3.30;;;;;;;19.11;56.87;98917.16;5128147;28;20055;-68
2022/06/13 02:28:51;;;;;;;4.95;4.20;;;;;;;19.62;57.00;98997.22;5128080;28;20341;-67
2022/06/13 02:31:23;;;;;;;5.40;4.30;;;;;;;19.50;57.43;99001.97;5127701;28;20058;-67
2022/06/13 02:33:55;;;;;;;5.30;4.60;;;;;;;19.60;56.51;98990.31;5127812;28;20058;-68
2022/06/13 02:36:28;;;;;;;4.03;3.08;;;;;;;19.64;56.58;98994.38;5127911;28;20058;-67
2022/06/13 02:39:01;;;;;;;5.82;4.68;;;;;;;19.46;57.72;98999.72;5127902;28;20055;-67
2022/06/13 02:41:36;;;;;;;6.25;4.03;;;;;;;19.49;57.46;98992.19;5127890;28;20180;-67
2022/06/13 02:44:09;;;;;;;4.38;3.72;;;;;;;19.54;56.56;98991.75;5127933;28;20307;-67
2022/06/13 02:46:43;;;;;;;4.00;3.42;;;;;;;19.52;56.74;98991.91;5127861;27;20055;-68
2022/06/13 02:49:18;;;;;;;4.38;3.53;;;;;;;19.62;56.91;98988.31;5127758;28;20051;-68
2022/06/13 02:51:54;;;;;;;5.47;3.25;;;;;;;19.61;56.81;98992.84;5127743;28;20066;-67
2022/06/13 02:54:25;;;;;;;5.00;3.95;;;;;;;18.88;56.75;98873.72;5126757;28;20056;-68
2022/06/13 03:00:03;;;;;;;4.97;3.92;;;;;;;19.29;57.89;98985.19;5127523;28;20303;-67
2022/06/13 03:02:44;;;;;;;5.68;4.30;;;;;;;19.46;57.43;98971.00;5127440;28;20052;-68
2022/06/13 03:05:34;;;;;;;4.97;3.88;;;;;;;19.46;57.44;98962.94;5127247;28;20334;-67
2022/06/13 03:08:15;;;;;;;4.40;3.42;;;;;;;19.41;57.49;98964.38;5127598;28;20067;-67
2022/06/13 03:10:48;;;;;;;5.90;3.55;;;;;;;19.44;56.67;98966.78;5127212;28;20066;-67
2022/06/13 03:13:24;;;;;;;6.22;3.80;;;;;;;19.45;57.10;98961.25;5127074;28;20059;-67
2022/06/13 03:15:56;;;;;;;4.38;3.10;;;;;;;19.44;56.93;98973.00;5127209;28;20055;-68
2022/06/13 03:18:27;;;;;;;6.55;4.28;;;;;;;19.37;57.38;98979.94;5126898;28;20316;-67
2022/06/13 03:21:02;;;;;;;5.10;4.05;;;;;;;19.09;58.41;98980.91;5126671;28;20058;-68
2022/06/13 03:23:36;;;;;;;4.88;4.32;;;;;;;19.07;58.33;98993.63;5126830;28;20219;-67
2022/06/13 03:26:09;;;;;;;4.00;3.55;;;;;;;19.29;57.28;98984.34;5126935;28;20047;-67
2022/06/13 03:28:45;;;;;;;4.50;3.72;;;;;;;19.38;57.33;98976.25;5127215;28;20055;-68
2022/06/13 03:31:19;;;;;;;4.03;3.63;;;;;;;19.35;57.33;98976.53;5126383;27;20055;-67
2022/06/13 03:33:50;;;;;;;;;;;;;;;19.15;58.40;98980.31;5127298;28;20058;-67
2022/06/13 03:36:23;;;;;;;5.53;3.58;;;;;;;19.34;57.33;98965.94;5126914;27;19923;-67
2022/06/13 03:38:56;;;;;;;4.63;3.43;;;;;;;19.40;56.98;98965.38;5126603;28;20055;-67
2022/06/13 03:41:29;;;;;;;4.30;3.85;;;;;;;19.47;57.11;98986.13;5126716;28;20051;-67
2022/06/13 03:44:00;;;;;;;6.93;3.67;;;;;;;19.45;57.35;98963.09;5126593;28;20052;-67
2022/06/13 03:46:35;;;;;;;4.30;3.78;;;;;;;19.51;57.39;98962.50;5126289;28;20047;-67
2022/06/13 03:49:07;;;;;;;5.22;4.07;;;;;;;19.50;57.07;98958.09;5126172;28;20051;-67
2022/06/13 03:51:42;;;;;;;7.43;3.83;;;;;;;19.49;57.67;98962.63;5126337;28;20219;-68
2022/06/13 03:54:13;;;;;;;5.63;4.03;;;;;;;19.50;57.48;98960.78;5126530;28;20062;-67
2022/06/13 03:56:46;;;;;;;5.65;3.55;;;;;;;19.47;57.70;98964.63;5125997;27;20047;-68
2022/06/13 03:59:19;;;;;;;4.93;3.72;;;;;;;19.58;57.05;98968.09;5125944;28;20059;-68
2022/06/13 04:01:49;;;;;;;5.50;3.70;;;;;;;19.62;57.04;98966.81;5126266;28;20051;-67
2022/06/13 04:04:20;;;;;;;8.02;4.28;;;;;;;19.38;58.50;98973.56;5125965;28;20185;-67
2022/06/13 04:06:49;;;;;;;4.80;4.22;;;;;;;19.37;58.35;98966.50;5125965;28;20055;-67
2022/06/13 04:09:19;;;;;;;5.93;4.68;;;;;;;19.44;58.28;98966.78;5126219;28;20055;-67
2022/06/13 04:12:06;;;;;;;4.78;4.25;;;;;;;19.46;58.49;98971.00;5126027;28;20319;-67
2022/06/13 04:14:53;;;;;;;6.22;4.07;;;;;;;19.54;57.94;98963.03;5126140;28;20055;-68
2022/06/13 04:17:29;;;;;;;5.00;3.97;;;;;;;18.95;57.30;98864.09;5126381;28;20056;-67
2022/06/13 04:20:03;;;;;;;6.93;4.60;;;;;;;19.62;57.34;98966.81;5125855;28;20055;-67
2022/06/13 04:22:41;;;;;;;13.38;3.90;;;;;;;19.60;56.82;98974.19;5126127;28;20051;-67
2022/06/13 04:25:19;;;;;;;5.93;4.10;;;;;;;19.57;57.30;98985.22;5126104;28;20051;-68
2022/06/13 04:27:54;;;;;;;4.25;3.60;;;;;;;19.59;56.98;98981.41;5125579;28;20055;-67
2022/06/13 04:30:25;;;;;;;5.43;4.25;;;;;;;19.12;56.42;98886.59;5125641;28;20051;-68
2022/06/13 04:32:57;;;;;;;5.07;3.90;;;;;;;19.53;56.98;98982.00;5125919;28;20058;-67
2022/06/13 04:35:25;;;;;;;4.70;3.80;;;;;;;19.58;56.92;98979.69;5125648;28;20047;-67
2022/06/13 04:37:54;;;;;;;5.60;3.83;;;;;;;19.52;57.54;98983.84;5125592;28;20055;-67
2022/06/13 04:40:25;;;;;;;4.28;3.88;;;;;;;19.62;57.03;98982.94;5126071;28;20067;-67
2022/06/13 04:42:55;;;;;;;7.47;5.07;;;;;;;19.68;57.14;98990.41;5125414;28;20067;-67
2022/06/13 04:45:26;;;;;;;6.03;4.40;;;;;;;19.58;57.28;98979.69;5125369;28;20215;-67
2022/06/13 04:47:57;;;;;;;7.13;5.05;;;;;;;19.11;57.44;98893.81;5125503;28;20051;-67
2022/06/13 04:50:32;;;;;;;7.30;4.47;;;;;;;19.74;57.55;98974.50;5125521;28;20054;-67
2022/06/13 04:53:02;;;;;;;6.15;4.40;;;;;;;19.80;57.20;98989.19;5125717;28;20047;-67
2022/06/13 04:55:36;;;;;;;7.13;5.90;;;;;;;19.86;58.01;98986.75;5125943;28;20055;-67
2022/06/13 04:58:03;;;;;;;;;;;;;;;19.71;58.81;98995.47;5126175;28;20056;-67
2022/06/13 05:00:33;;;;;;;6.95;4.85;;;;;;;19.82;58.60;99003.34;5125566;28;19916;-68
2022/06/13 05:03:00;;;;;;;8.38;6.15;;;;;;;19.85;58.51;99014.66;5125588;28;20070;-67
2022/06/13 05:05:37;;;;;;;7.47;5.70;;;;;;;19.92;59.20;99020.28;5125271;28;20056;-67
2022/06/13 05:08:14;;;;;;;8.57;6.55;;;;;;;19.96;59.35;99031.56;5125620;28;20261;-68
2022/06/13 05:10:44;;;;;;;8.73;6.30;;;;;;;19.99;59.58;99036.66;5125824;28;20051;-67
2022/06/13 05:13:12;;;;;;;12.45;7.85;;;;;;;20.03;59.02;99056.88;5125277;28;20048;-67
2022/06/13 05:15:39;;;;;;;12.48;8.52;;;;;;;20.11;58.78;99084.69;5125098;28;20055;-68
2022/06/13 05:18:29;;;;;;;9.48;6.47;;;;;;;20.16;59.31;99138.06;5128532;28;20066;-68
2022/06/13 05:21:14;;;;;;;9.10;5.38;;;;;;;19.96;58.28;99187.56;5129657;28;20066;-67
2022/06/13 05:23:58;;;;;;;4.57;4.00;;;;;;;19.74;57.17;99162.72;5129590;28;20043;-68
2022/06/13 05:26:29;;;;;;;3.75;3.35;;;;;;;19.71;57.48;99157.63;5128974;27;20334;-67
2022/06/13 05:28:57;;;;;;;7.20;3.50;;;;;;;19.64;56.63;99169.13;5128972;28;20066;-67
2022/06/13 05:31:24;;;;;;;5.35;4.18;;;;;;;19.75;56.39;99148.28;5128331;28;20058;-68
2022/06/13 05:33:53;;;;;;;12.80;8.93;;;;;;;19.81;56.79;99125.34;5128824;28;20054;-67
2022/06/13 05:36:25;;;;;;;9.60;6.53;;;;;;;19.87;56.39;99138.19;5128804;28;20056;-67
2022/06/13 05:38:56;;;;;;;7.20;3.70;;;;;;;19.84;54.89;99147.41;5129249;28;20051;-67
2022/06/13 05:41:24;;;;;;;5.93;3.90;;;;;;;19.49;55.12;99088.94;5129265;28;20121;-67
2022/06/13 05:43:51;;;;;;;8.13;3.90;;;;;;;19.72;55.38;99126.22;5129062;28;20055;-68
2022/06/13 05:46:27;;;;;;;6.18;4.93;;;;;;;19.73;54.34;99128.75;5128477;27;20311;-67
2022/06/13 05:48:55;;;;;;;5.07;4.07;;;;;;;19.38;54.15;99094.47;5128788;28;20063;-68
2022/06/13 05:51:23;;;;;;;6.07;3.47;;;;;;;19.69;54.45;99148.00;5128730;28;20052;-68
2022/06/13 05:53:50;;;;;;;4.63;3.63;;;;;;;19.75;54.40;99137.53;5128506;28;20057;-67
2022/06/13 05:56:20;;;;;;;7.70;4.13;;;;;;;19.79;54.57;99135.38;5128744;28;20059;-68
2022/06/13 05:58:47;;;;;;;5.43;4.10;;;;;;;19.86;54.72;99131.13;5128726;28;20056;-67
2022/06/13 06:01:15;;;;;;;5.97;4.97;;;;;;;19.95;54.23;99122.16;5128264;28;20055;-68
2022/06/13 06:03:43;;;;;;;5.20;3.83;;;;;;;20.05;54.20;99131.03;5128641;28;20058;-68
2022/06/13 06:06:14;;;;;;;5.90;4.43;;;;;;;20.13;54.47;99141.88;5128575;28;20055;-67
2022/06/13 06:08:42;;;;;;;7.78;6.35;;;;;;;20.07;54.13;99110.22;5128145;28;20055;-67
2022/06/13 06:11:09;;;;;;;11.48;8.10;;;;;;;20.21;54.12;99129.53;5128319;28;20334;-67
2022/06/13 06:13:38;;;;;;;8.73;5.57;;;;;;;20.28;54.18;99126.09;5128536;28;20058;-68
2022/06/13 06:16:06;;;;;;;7.45;4.97;;;;;;;19.61;54.64;99005.44;5128010;28;20227;-67
2022/06/13 06:18:34;;;;;;;7.03;5.47;;;;;;;20.32;54.46;99121.28;5128432;28;20199;-68
2022/06/13 06:21:01;;;;;;;5.97;3.60;;;;;;;20.35;54.63;99120.97;5127998;28;20051;-68
2022/06/13 06:23:28;;;;;;;5.75;3.33;;;;;;;20.39;54.14;99122.34;5128107;28;20052;-68
2022/06/13 06:25:58;;;;;;;5.28;3.95;;;;;;;20.41;54.57;99129.28;5128428;27;20303;-67
2022/06/13 06:28:27;;;;;;;6.60;5.60;;;;;;;20.42;54.71;99132.81;5127756;28;20200;-68
2022/06/13 06:30:58;;;;;;;5.75;4.97;;;;;;;20.47;54.66;99141.28;5127894;28;20059;-68
2022/06/13 06:33:27;;;;;;;12.43;3.58;;;;;;;20.47;53.93;99154.75;5127852;28;20054;-67
2022/06/13 06:35:55;;;;;;;4.85;4.18;;;;;;;20.51;54.36;99158.81;5127863;27;20056;-67
2022/06/13 06:38:24;;;;;;;5.13;3.78;;;;;;;20.49;54.04;99174.28;5127721;28;20047;-68
2022/06/13 06:40:52;;;;;;;3.83;2.70;;;;;;;20.43;54.57;99188.34;5127874;28;20055;-67
2022/06/13 06:43:20;;;;;;;4.53;3.05;;;;;;;20.42;54.44;99181.25;5127769;28;20215;-67
2022/06/13 06:45:47;;;;;;;5.88;2.90;;;;;;;19.78;54.84;99079.91;5127330;28;20063;-67
2022/06/13 06:48:18;;;;;;;4.35;3.22;;;;;;;20.42;55.26;99171.34;5127683;28;20215;-68
2022/06/13 06:50:48;;;;;;;7.57;3.33;;;;;;;20.35;55.15;99166.72;5127512;28;20059;-68
2022/06/13 06:53:18;;;;;;;5.47;3.10;;;;;;;20.39;54.94;99158.19;5127262;28;20078;-67
2022/06/13 07:01:17;;;;;;;8.18;3.92;;;;;;;20.33;55.48;99160.63;5127568;28;20040;-67
2022/06/13 07:03:46;;;;;;;9.00;8.10;;;;;;;20.37;55.25;99144.03;5127361;28;20127;-68
2022/06/13 07:06:16;;;;;;;8.88;6.25;;;;;;;20.39;55.34;99155.50;5127579;28;20058;-68
2022/06/13 07:08:43;;;;;;;5.28;4.07;;;;;;;20.38;55.07;99155.66;5127044;28;20052;-68
2022/06/13 07:14:02;;;;;;;7.50;5.30;;;;;;;20.33;55.08;99148.03;5127139;28;20047;-67
2022/06/13 07:16:30;;;;;;;5.53;3.72;;;;;;;20.37;54.73;99138.66;5127355;28;20056;-68
2022/06/13 07:18:59;;;;;;;5.85;3.80;;;;;;;20.38;54.75;99142.19;5127034;28;20052;-68
2022/06/13 07:21:26;;;;;;;5.53;3.90;;;;;;;20.39;54.95;99128.59;5126894;28;20310;-68
2022/06/13 07:23:53;;;;;;;4.35;3.47;;;;;;;20.36;54.76;99111.91;5127192;27;20052;-68
2022/06/13 07:26:21;;;;;;;6.82;3.85;;;;;;;20.33;54.97;99121.13;5126725;28;20055;-67
2022/06/13 07:28:48;;;;;;;4.80;3.65;;;;;;;20.34;55.00;99121.97;5126946;28;20047;-67
2022/06/13 07:31:19;;;;;;;5.85;3.97;;;;;;;20.40;55.15;99127.59;5126564;27;20345;-68
2022/06/13 07:33:48;;;;;;;5.93;4.35;;;;;;;20.39;55.02;99131.28;5126503;27;20204;-68
2022/06/13 07:36:18;;;;;;;5.97;3.90;;;;;;;20.36;55.08;99128.88;5126912;28;20055;-68
2022/06/13 07:38:46;;;;;;;5.60;4.28;;;;;;;20.44;55.04;99117.34;5126140;28;20051;-68
2022/06/13 07:41:18;;;;;;;4.65;3.92;;;;;;;20.37;55.77;99094.75;5126374;28;20055;-68
2022/06/13 07:43:46;;;;;;;5.15;3.90;;;;;;;20.39;55.75;99087.38;5126291;28;20052;-68
2022/06/13 07:46:14;;;;;;;4.95;3.63;;;;;;;20.53;55.53;99104.81;5126241;28;20319;-68
2022/06/13 07:48:41;;;;;;;7.25;4.22;;;;;;;20.40;56.16;99099.81;5126250;27;20062;-68
2022/06/13 07:51:09;;;;;;;4.78;4.28;;;;;;;20.45;56.31;99089.44;5126614;28;20055;-67
2022/06/13 07:53:37;;;;;;;5.07;4.10;;;;;;;20.56;55.79;99094.59;5125966;27;20219;-68
2022/06/13 07:56:05;;;;;;;4.28;3.65;;;;;;;20.58;55.54;99100.66;5125860;28;20055;-68
2022/06/13 07:58:35;;;;;;;5.03;4.18;;;;;;;20.55;55.94;99083.97;5126307;28;20055;-68
2022/06/13 08:01:04;;;;;;;4.57;3.50;;;;;;;20.58;55.62;99084.53;5125837;28;20063;-68
2022/06/13 08:03:33;;;;;;;10.70;3.78;;;;;;;20.13;56.03;99001.16;5125892;28;20048;-68
2022/06/13 08:06:01;;;;;;;4.60;3.78;;;;;;;20.68;56.26;99092.50;5125654;28;20058;-68
2022/06/13 08:08:28;;;;;;;3.97;3.33;;;;;;;20.76;55.71;99089.88;5126457;28;20060;-67
2022/06/13 08:11:01;;;;;;;5.00;3.78;;;;;;;20.73;55.95;99101.81;5126165;28;20051;-68
2022/06/13 08:13:28;;;;;;;7.45;4.03;;;;;;;20.75;56.02;99093.59;5125997;28;20047;-68
2022/06/13 08:15:57;;;;;;;4.80;2.90;;;;;;;20.78;55.82;99095.97;5125953;28;20062;-68
2022/06/13 08:18:26;;;;;;;7.18;2.90;;;;;;;20.85;55.75;99097.03;5125887;28;20055;-68
2022/06/13 08:20:53;;;;;;;4.70;3.63;;;;;;;20.91;55.74;99085.63;5125846;28;20055;-68
2022/06/13 08:23:24;;;;;;;5.78;4.03;;;;;;;21.06;55.54;99088.63;5124758;28;20051;-68
2022/06/13 08:25:53;;;;;;;4.57;4.00;;;;;;;21.33;54.88;99080.38;5126045;28;20188;-68
2022/06/13 08:28:21;;;;;;;6.75;3.30;;;;;;;21.18;54.46;99017.31;5125933;28;20063;-68
2022/06/13 08:30:52;;;;;;;5.07;3.85;;;;;;;21.94;53.89;99083.91;5125831;28;20052;-68
2022/06/13 08:33:21;;;;;;;4.13;3.10;;;;;;;21.91;53.36;99071.59;5125871;28;20051;-67
2022/06/13 08:35:49;;;;;;;4.20;3.28;;;;;;;22.10;53.14;99070.47;5126047;28;20055;-69
2022/06/13 08:38:17;;;;;;;5.35;3.80;;;;;;;22.22;52.43;99050.25;5125925;28;20207;-68
2022/06/13 08:40:51;;;;;;;3.85;3.10;;;;;;;22.49;52.57;99070.72;5125778;28;20063;-68
2022/06/13 08:43:37;;;;;;;3.80;3.40;;;;;;;22.92;52.43;99066.88;5126007;28;20056;-68
2022/06/13 08:46:11;;;;;;;4.25;3.47;;;;;;;23.05;51.37;99072.63;5125383;28;20059;-67
2022/06/13 08:48:41;;;;;;;5.28;3.97;;;;;;;23.17;51.31;99081.22;5125540;28;20082;-67
2022/06/13 08:51:11;;;;;;;4.60;3.25;;;;;;;23.18;51.22;99080.19;5125602;28;20062;-68
2022/06/13 08:53:47;;;;;;;3.53;2.78;;;;;;;23.22;51.22;99084.25;5129865;28;20062;-68
2022/06/13 08:56:17;;;;;;;6.75;3.92;;;;;;;23.07;51.79;99077.00;5129884;28;20338;-67
2022/06/13 08:58:53;;;;;;;4.20;3.38;;;;;;;23.12;51.38;99071.94;5129693;28;20052;-68
2022/06/13 09:01:26;;;;;;;4.00;3.60;;;;;;;23.01;51.41;99041.53;5129501;28;20223;-67
2022/06/13 09:04:01;;;;;;;5.57;3.42;;;;;;;23.14;51.70;99069.91;5129734;28;20048;-68
2022/06/13 09:06:34;;;;;;;5.78;3.42;;;;;;;23.36;51.48;99058.38;5129521;28;20215;-68
2022/06/13 09:09:09;;;;;;;3.80;3.17;;;;;;;23.51;50.74;99064.75;5129804;28;20223;-68
2022/06/13 09:11:42;;;;;;;4.43;3.67;;;;;;;22.75;51.04;98919.34;5129888;27;20125;-68
2022/06/13 09:14:17;;;;;;;4.90;4.28;;;;;;;23.66;50.50;99027.00;5129611;28;20063;-68
2022/06/13 09:16:53;;;;;;;5.13;3.60;;;;;;;23.79;50.05;99050.78;5129838;27;20063;-68
2022/06/13 09:19:27;;;;;;;5.40;4.85;;;;;;;23.78;49.65;99060.78;5129176;28;20058;-68
2022/06/13 09:22:01;;;;;;;5.97;3.90;;;;;;;23.61;49.73;99045.63;5129210;28;20059;-68
2022/06/13 09:24:37;;;;;;;3.63;2.97;;;;;;;23.68;49.88;99052.03;5129099;28;20329;-67
2022/06/13 09:27:08;;;;;;;6.40;3.65;;;;;;;23.82;49.50;99053.16;5129254;28;20056;-68
2022/06/13 09:29:44;;;;;;;4.63;3.05;;;;;;;23.87;49.35;99048.03;5129107;28;20056;-68
2022/06/13 09:32:17;;;;;;;3.35;2.83;;;;;;;23.90;48.87;99042.28;5129001;28;20055;-68
2022/06/13 09:34:46;;;;;;;4.05;2.75;;;;;;;23.94;48.83;99046.31;5128899;28;20062;-68
2022/06/13 09:37:17;;;;;;;4.60;3.00;;;;;;;23.96;47.80;99026.19;5129257;28;20059;-68
2022/06/13 09:39:44;;;;;;;3.35;2.78;;;;;;;24.11;48.28;99020.88;5128867;28;20215;-68
2022/06/13 09:42:29;;;;;;;4.80;3.00;;;;;;;24.16;48.03;99037.41;5128831;28;20055;-68
2022/06/13 09:45:13;;;;;;;4.13;2.95;;;;;;;24.32;47.70;99034.59;5129123;27;20058;-68
2022/06/13 09:47:48;;;;;;;3.58;2.83;;;;;;;24.49;47.96;99026.34;5128784;28;20055;-68
2022/06/13 09:50:24;;;;;;;6.55;2.58;;;;;;;24.53;47.43;99004.13;5128712;28;20055;-68
2022/06/13 09:53:02;;;;;;;3.65;2.58;;;;;;;24.78;46.96;99023.75;5128974;28;20051;-68
2022/06/13 09:55:36;;;;;;;3.40;2.33;;;;;;;24.72;46.80;99020.94;5128738;28;20059;-68
2022/06/13 09:58:13;;;;;;;4.75;2.60;;;;;;;24.96;46.01;99016.13;5128594;28;20048;-68
2022/06/13 10:00:52;;;;;;;3.10;2.50;;;;;;;24.74;46.53;99027.03;5128574;28;20058;-68
2022/06/13 10:03:30;;;;;;;3.88;2.72;;;;;;;24.84;46.55;99001.34;5127787;28;20303;-68
2022/06/13 10:06:07;;;;;;;4.47;3.20;;;;;;;25.18;46.64;98998.13;5128455;28;20058;-69
2022/06/13 10:08:48;;;;;;;4.65;3.17;;;;;;;25.22;46.12;98991.31;5128018;28;20055;-68
2022/06/13 10:11:24;;;;;;;5.18;2.35;;;;;;;25.47;45.92;98988.34;5128065;27;20067;-68
2022/06/13 10:14:06;;;;;;;7.90;5.57;;;;;;;25.55;45.60;98996.38;5128049;28;20051;-68
2022/06/13 10:16:44;;;;;;;4.50;2.88;;;;;;;25.41;44.92;99000.78;5128272;28;20056;-68
2022/06/13 10:19:21;;;;;;;4.15;2.20;;;;;;;25.27;44.67;98986.16;5128117;28;20055;-69
2022/06/13 10:21:52;;;;;;;3.75;2.22;;;;;;;24.76;46.15;98913.88;5128116;28;20196;-69
2022/06/13 10:24:30;;;;;;;4.43;2.30;;;;;;;25.31;44.41;98997.50;5128228;28;20216;-68
2022/06/13 10:27:04;;;;;;;7.40;2.63;;;;;;;24.90;45.27;98957.25;5127567;28;20215;-68
2022/06/13 10:29:58;;;;;;;5.07;2.47;;;;;;;25.35;44.60;98979.84;5127958;28;20056;-68
2022/06/13 10:32:41;;;;;;;3.28;2.00;;;;;;;25.35;44.16;98995.28;5127619;28;20047;-68
2022/06/13 10:35:21;;;;;;;3.42;2.10;;;;;;;25.26;44.20;98979.06;5127600;28;20107;-68
2022/06/13 10:37:59;;;;;;;4.05;2.30;;;;;;;25.38;44.78;98987.59;5127541;28;20056;-68
2022/06/13 10:40:28;;;;;;;3.05;2.28;;;;;;;25.26;44.67;98992.63;5127358;27;20056;-68
2022/06/13 10:42:55;;;;;;;2.95;2.15;;;;;;;25.13;45.43;98959.91;5127605;28;20058;-68
2022/06/13 10:45:23;;;;;;;3.22;2.13;;;;;;;25.09;45.74;98995.72;5127253;28;20052;-68
2022/06/13 10:47:56;;;;;;;4.93;2.70;;;;;;;25.10;45.19;98995.53;5127551;28;20242;-68
2022/06/13 10:50:32;;;;;;;3.08;2.00;;;;;;;25.27;45.48;98985.34;5127839;28;20056;-68
2022/06/13 10:53:03;;;;;;;3.35;2.00;;;;;;;25.24;45.20;98983.00;5127708;28;20066;-68
2022/06/13 10:55:38;;;;;;;2.97;2.10;;;;;;;25.21;45.06;98981.50;5127360;28;20052;-68
2022/06/13 10:58:13;;;;;;;5.15;2.47;;;;;;;25.27;44.83;98985.34;5127499;28;20055;-68
2022/06/13 11:00:42;;;;;;;3.67;2.28;;;;;;;25.20;44.54;99000.66;5126960;27;20063;-68
2022/06/13 11:03:14;;;;;;;4.15;2.70;;;;;;;25.16;43.92;98981.22;5127236;28;20047;-68
2022/06/13 11:05:52;;;;;;;3.60;2.40;;;;;;;25.26;43.81;98987.19;5126806;28;20052;-68
2022/06/13 11:08:20;;;;;;;4.43;2.22;;;;;;;25.34;44.08;98980.03;5127156;28;20063;-68
2022/06/13 11:10:56;;;;;;;3.30;2.00;;;;;;;25.35;43.47;98984.44;5126936;28;20058;-68
2022/06/13 11:13:26;;;;;;;2.95;1.77;;;;;;;25.38;44.36;98965.91;5127001;28;20058;-68
2022/06/13 11:24:25;;;;;;;3.67;2.00;;;;;;;25.76;43.71;98946.75;5126761;28;20046;-68
2022/06/13 11:29:39;;;;;;;3.05;1.98;;;;;;;25.85;43.45;98956.44;5126991;28;20062;-69
2022/06/13 11:32:20;;;;;;;3.03;2.00;;;;;;;25.71;43.83;98955.47;5126720;28;20052;-69
2022/06/13 11:34:49;;;;;;;4.03;1.92;;;;;;;25.78;44.24;98950.94;5126168;28;20086;-69
2022/06/13 11:37:19;;;;;;;3.33;2.58;;;;;;;25.91;43.87;98951.09;5126051;28;20056;-69
2022/06/13 11:39:49;;;;;;;2.95;2.22;;;;;;;25.62;43.48;98918.63;5126383;28;20062;-69
2022/06/13 11:42:20;;;;;;;4.18;2.35;;;;;;;25.92;43.16;98936.47;5126628;28;20303;-69
2022/06/13 11:44:51;;;;;;;2.75;2.05;;;;;;;26.03;43.04;98943.31;5126299;28;20059;-69
2022/06/13 11:47:21;;;;;;;2.75;2.00;;;;;;;25.96;43.35;98944.25;5126091;28;20047;-69
2022/06/13 11:49:55;;;;;;;2.88;2.15;;;;;;;25.97;43.27;98938.66;5126161;28;20068;-69
2022/06/13 11:55:23;;;;;;;3.42;2.47;;;;;;;26.10;43.20;98929.81;5126311;28;20219;-70
2022/06/13 11:57:54;;;;;;;2.33;1.58;;;;;;;26.13;43.17;98935.69;5126560;28;20066;-69
2022/06/13 12:00:29;;;;;;;3.33;2.17;;;;;;;25.74;42.63;98886.38;5125997;28;20055;-69
2022/06/13 12:03:04;;;;;;;3.33;2.10;;;;;;;25.59;42.57;98859.31;5125952;28;20062;-69
2022/06/13 12:05:35;;;;;;;2.67;1.90;;;;;;;26.03;43.16;98942.47;5126118;28;20059;-68
2022/06/13 12:08:05;;;;;;;3.90;2.03;;;;;;;25.77;43.18;98891.44;5126070;28;20059;-69
2022/06/13 12:10:35;;;;;;;2.80;1.90;;;;;;;25.96;43.45;98923.38;5126171;28;20055;-69
2022/06/13 12:13:04;;;;;;;3.08;2.00;;;;;;;25.89;43.77;98909.72;5125915;28;20055;-68
2022/06/13 12:15:37;;;;;;;3.67;1.85;;;;;;;25.67;42.87;98871.91;5125812;28;20319;-69
2022/06/13 12:18:16;;;;;;;3.13;2.00;;;;;;;25.94;43.29;98914.56;5125841;28;20051;-69
2022/06/13 12:20:49;;;;;;;2.60;1.70;;;;;;;25.90;43.33;98900.53;5126039;28;20058;-69
2022/06/13 12:23:26;;;;;;;3.60;2.00;;;;;;;25.99;43.15;98903.16;5125906;28;20058;-69
2022/06/13 12:25:58;;;;;;;4.13;1.92;;;;;;;26.03;43.46;98910.72;5125627;28;20051;-69
2022/06/13 12:28:31;;;;;;;3.00;2.20;;;;;;;25.97;43.02;98914.22;5125870;28;20325;-68
2022/06/13 12:31:04;;;;;;;7.17;6.37;;;;;;;25.91;43.04;98907.66;5125481;28;20059;-68
2022/06/13 12:33:46;;;;;;;4.25;2.97;;;;;;;26.16;42.86;98894.56;5125835;28;20322;-69
2022/06/13 12:36:39;;;;;;;6.80;2.70;;;;;;;26.13;42.64;98900.38;5125466;28;20063;-68
2022/06/13 12:39:22;;;;;;;3.55;2.67;;;;;;;26.12;42.97;98908.72;5125410;28;20055;-69
2022/06/13 12:42:01;;;;;;;4.35;3.17;;;;;;;26.13;42.89;98911.25;5125592;28;20055;-69
2022/06/13 12:44:44;;;;;;;3.67;2.90;;;;;;;26.10;42.87;98921.66;5125505;28;20055;-69
2022/06/13 12:47:46;;;;;;;4.25;2.95;;;;;;;25.90;43.04;98935.00;5126060;28;20058;-69
2022/06/13 12:53:08;;;;;;;3.50;2.42;;;;;;;25.50;46.69;98936.41;5144955;27;20494;-68
2022/06/13 12:55:40;;;;;;;4.00;2.40;;;;;;;25.24;49.36;98958.59;5143720;27;20327;-68
2022/06/13 12:58:23;;;;;;;4.07;2.20;;;;;;;24.67;50.35;98890.59;5143952;27;20043;-68